Time;durP1;ratioP1;P1;durP2;ratioP2;P2;SDS_P1;SDS_P2;PMS_P1;PMS_P2;Temp;Humidity;BMP_temperature;BMP_pressure;BME280_temperature;BME280_humidity;BME280_pressure;Samples;Min_cycle;Max_cycle;Signal;HPM_P1;HPM_P2
2023/11/01 00:02:15;;;;;;;;;;;;;;;19.05;55.17;99065.91;5092165;28;19955;-77
2023/11/01 00:04:40;;;;;;;;;;;;;;;19.05;55.03;99066.72;5092101;28;19923;-78
2023/11/01 00:07:06;;;;;;;;;;;;;;;19.07;55.39;99062.97;5092115;28;19912;-76
2023/11/01 00:09:31;;;;;;;;;;;;;;;19.06;55.45;99051.47;5073836;28;19920;-78
2023/11/01 00:11:56;;;;;;;;;;;;;;;19.09;55.31;99074.25;5091822;28;19919;-76
2023/11/01 00:14:22;;;;;;;;;;;;;;;19.10;55.47;99086.56;5073642;28;20313;-78
2023/11/01 00:16:47;;;;;;;;;;;;;;;19.10;55.37;99084.69;5091618;28;19912;-77
2023/11/01 00:19:12;;;;;;;;;;;;;;;19.10;55.63;99091.94;5091905;28;19965;-77
2023/11/01 00:21:39;;;;;;;;;;;;;;;19.10;55.18;99084.69;5074219;28;19916;-77
2023/11/01 00:24:04;;;;;;;;;;;;;;;19.11;54.97;99082.84;5091971;28;20019;-77
2023/11/01 00:26:29;;;;;;;;;;;;;;;19.10;55.13;99067.84;5094021;28;19947;-77
2023/11/01 00:28:55;;;;;;;;;;;;;;;19.11;55.09;99066.78;5095351;28;19916;-74
2023/11/01 00:31:20;;;;;;;;;;;;;;;19.11;55.30;99072.13;5092652;28;19920;-78
2023/11/01 00:33:46;;;;;;;;;;;;;;;19.09;55.16;99079.59;5091844;28;20327;-75
2023/11/01 00:36:12;;;;;;;;;;;;;;;19.03;55.61;99082.19;5073491;28;19912;-78
2023/11/01 00:38:37;;;;;;;;;;;;;;;18.99;55.67;99094.44;5091618;28;20006;-77
2023/11/01 00:41:03;;;;;;;;;;;;;;;18.98;55.39;99095.50;5091697;28;19912;-77
2023/11/01 00:43:29;;;;;;;;;;;;;;;18.95;55.31;99097.84;5091555;28;19912;-76
2023/11/01 00:45:54;;;;;;;;;;;;;;;18.89;55.11;99086.25;5091737;28;19916;-77
2023/11/01 00:48:20;;;;;;;;;;;;;;;18.88;55.15;99084.63;5091451;28;19912;-78
2023/11/01 00:50:45;;;;;;;;;;;;;;;18.88;55.39;99073.94;5091600;28;20440;-75
2023/11/01 00:53:10;;;;;;;;;;;;;;;18.87;55.53;99066.97;5073364;28;20313;-78
2023/11/01 00:55:35;;;;;;;;;;;;;;;18.84;55.86;99053.25;5091271;28;19912;-76
2023/11/01 00:58:01;;;;;;;;;;;;;;;18.82;55.63;99058.84;5073194;28;20424;-77
2023/11/01 01:00:26;;;;;;;;;;;;;;;18.80;56.08;99081.56;5091414;28;19915;-74
2023/11/01 01:02:51;;;;;;;;;;;;;;;18.74;55.47;99091.34;5092690;28;19934;-78
2023/11/01 01:05:17;;;;;;;;;;;;;;;18.68;56.22;99085.09;5095071;28;19990;-75
2023/11/01 01:07:42;;;;;;;;;;;;;;;18.67;55.94;99090.69;5076888;28;20367;-76
2023/11/01 01:10:07;;;;;;;;;;;;;;;18.62;56.16;99094.09;5095058;28;20431;-75
2023/11/01 01:12:33;;;;;;;;;;;;;;;18.56;55.61;99091.50;5094983;28;19912;-77
2023/11/01 01:14:58;;;;;;;;;;;;;;;18.50;55.76;99097.81;5095095;28;19972;-75
2023/11/01 01:17:23;;;;;;;;;;;;;;;18.46;55.62;99086.81;5076758;28;20373;-77
2023/11/01 01:19:48;;;;;;;;;;;;;;;18.41;55.62;99092.06;5095041;28;19955;-77
2023/11/01 01:22:14;;;;;;;;;;;;;;;18.37;55.56;99085.56;5094967;28;19960;-77
2023/11/01 01:24:39;;;;;;;;;;;;;;;18.36;55.68;99095.44;5094913;28;19920;-78
2023/11/01 01:27:05;;;;;;;;;;;;;;;18.34;55.48;99096.72;5076783;28;20343;-77
2023/11/01 01:29:31;;;;;;;;;;;;;;;18.34;55.44;99089.53;5076552;28;19935;-77
2023/11/01 01:31:56;;;;;;;;;;;;;;;18.33;55.37;99087.91;5094850;28;20376;-77
2023/11/01 01:34:21;;;;;;;;;;;;;;;18.30;55.63;99080.38;5094713;28;20316;-78
2023/11/01 01:36:47;;;;;;;;;;;;;;;18.28;55.55;99079.78;5094651;28;19912;-76
2023/11/01 01:39:12;;;;;;;;;;;;;;;18.29;55.82;99091.28;5094629;28;20385;-78
2023/11/01 01:41:38;;;;;;;;;;;;;;;18.24;55.56;99089.34;5094474;28;19970;-77
2023/11/01 01:44:04;;;;;;;;;;;;;;;18.21;55.58;99100.50;5094424;28;19916;-77
2023/11/01 01:46:30;;;;;;;;;;;;;;;18.20;55.83;99088.19;5094339;28;20367;-78
2023/11/01 01:48:56;;;;;;;;;;;;;;;18.21;55.78;99086.34;5076099;28;20343;-77
2023/11/01 01:51:21;;;;;;;;;;;;;;;18.22;55.88;99086.09;5076448;28;19912;-75
2023/11/01 01:53:48;;;;;;;;;;;;;;;18.18;56.17;99084.94;5076492;28;20305;-77
2023/11/01 01:56:14;;;;;;;;;;;;;;;18.17;56.17;99077.97;5094455;28;19912;-77
2023/11/01 01:58:40;;;;;;;;;;;;;;;18.14;56.38;99086.47;5094661;28;19919;-77
2023/11/01 02:01:06;;;;;;;;;;;;;;;18.09;56.37;99079.19;5094519;28;19912;-78
2023/11/01 02:03:31;;;;;;;;;;;;;;;18.05;56.76;99083.38;5072630;28;19980;-77
2023/11/01 02:05:57;;;;;;;;;;;;;;;18.05;56.15;99106.59;5074115;28;19917;-76
2023/11/01 02:08:23;;;;;;;;;;;;;;;18.04;56.12;99113.00;5073862;28;19916;-77
2023/11/01 02:10:48;;;;;;;;;;;;;;;18.02;56.48;99118.56;5073861;28;19920;-76
2023/11/01 02:13:14;;;;;;;;;;;;;;;18.05;56.03;99117.28;5073504;28;20879;-77
2023/11/01 02:15:40;;;;;;;;;;;;;;;18.05;55.85;99127.97;5073781;28;20385;-77
2023/11/01 02:18:06;;;;;;;;;;;;;;;18.02;55.90;99115.91;5072747;28;19970;-77
2023/11/01 02:20:33;;;;;;;;;;;;;;;18.02;55.91;99112.41;5074128;28;19913;-76
2023/11/01 02:22:59;;;;;;;;;;;;;;;18.03;56.10;99117.53;5073771;28;19919;-76
2023/11/01 02:25:24;;;;;;;;;;;;;;;18.05;56.04;99118.09;5072219;28;20007;-76
2023/11/01 02:27:49;;;;;;;;;;;;;;;18.05;55.59;99111.94;5072120;28;19913;-77
2023/11/01 02:30:16;;;;;;;;;;;;;;;18.04;55.73;99113.00;5072072;28;19913;-76
2023/11/01 02:32:42;;;;;;;;;;;;;;;18.04;55.68;99110.31;5073465;28;20003;-78
2023/11/01 02:35:07;;;;;;;;;;;;;;;18.02;55.87;99123.09;5073525;28;19959;-77
2023/11/01 02:37:33;;;;;;;;;;;;;;;18.01;55.78;99122.28;5072130;28;19913;-77
2023/11/01 02:39:59;;;;;;;;;;;;;;;18.03;55.81;99130.06;5073239;28;20441;-77
2023/11/01 02:42:24;;;;;;;;;;;;;;;18.05;56.00;99133.31;5072992;28;19912;-77
2023/11/01 02:44:49;;;;;;;;;;;;;;;18.06;55.78;99124.25;5072927;28;19939;-77
2023/11/01 02:47:14;;;;;;;;;;;;;;;18.05;55.46;99130.66;5071698;28;20009;-77
2023/11/01 02:49:40;;;;;;;;;;;;;;;18.00;55.43;99126.00;5072828;28;20282;-77
2023/11/01 02:52:05;;;;;;;;;;;;;;;17.93;55.41;99117.31;5072947;28;19963;-77
2023/11/01 02:54:30;;;;;;;;;;;;;;;17.91;55.45;99122.09;5072773;28;19920;-76
2023/11/01 02:56:59;;;;;;;;;;;;;;;17.89;55.58;99115.34;5072999;28;19912;-77
2023/11/01 02:59:24;;;;;;;;;;;;;;;17.88;55.49;99119.06;5072945;28;20309;-76
2023/11/01 03:01:50;;;;;;;;;;;;;;;17.85;55.50;99114.22;5071598;28;19919;-77
2023/11/01 03:04:15;;;;;;;;;;;;;;;17.87;55.50;99112.13;5090012;28;20007;-76
2023/11/01 03:06:40;;;;;;;;;;;;;;;17.85;55.41;99120.34;5093120;28;19947;-78
2023/11/01 03:09:06;;;;;;;;;;;;;;;17.86;55.57;99126.50;5093038;28;19957;-77
2023/11/01 03:11:31;;;;;;;;;;;;;;;17.85;55.51;99128.38;5092978;28;19918;-77
2023/11/01 03:13:56;;;;;;;;;;;;;;;17.79;55.37;99132.75;5093035;28;19921;-77
2023/11/01 03:16:21;;;;;;;;;;;;;;;17.72;55.85;99136.59;5092747;28;19912;-77
2023/11/01 03:18:46;;;;;;;;;;;;;;;17.63;55.88;99136.13;5092641;28;20297;-77
2023/11/01 03:21:12;;;;;;;;;;;;;;;17.58;55.96;99138.69;5092819;28;19966;-76
2023/11/01 03:23:37;;;;;;;;;;;;;;;17.59;56.02;99132.28;5074419;28;20354;-76
2023/11/01 03:26:03;;;;;;;;;;;;;;;17.59;56.13;99134.16;5091815;28;19919;-77
2023/11/01 03:28:28;;;;;;;;;;;;;;;17.61;56.01;99145.41;5092772;28;19912;-77
2023/11/01 03:30:53;;;;;;;;;;;;;;;17.66;55.96;99143.69;5092585;28;19912;-76
2023/11/01 03:33:19;;;;;;;;;;;;;;;17.69;55.98;99153.91;5092440;28;19919;-77
2023/11/01 03:35:44;;;;;;;;;;;;;;;17.69;55.78;99164.59;5092387;28;19912;-77
2023/11/01 03:38:09;;;;;;;;;;;;;;;17.67;56.00;99177.34;5074056;28;20394;-76
2023/11/01 03:40:34;;;;;;;;;;;;;;;17.64;55.91;99187.66;5092224;28;19918;-76
2023/11/01 03:43:00;;;;;;;;;;;;;;;17.59;56.31;99188.34;5092200;28;20369;-76
2023/11/01 03:45:25;;;;;;;;;;;;;;;17.59;55.95;99201.69;5092331;28;19916;-76
2023/11/01 03:47:50;;;;;;;;;;;;;;;17.58;56.21;99196.59;5092544;28;20025;-77
2023/11/01 03:50:15;;;;;;;;;;;;;;;17.54;56.33;99192.75;5092294;28;20460;-77
2023/11/01 03:52:41;;;;;;;;;;;;;;;17.56;56.12;99194.16;5092514;28;19916;-76
2023/11/01 03:55:11;;;;;;;;;;;;;;;17.58;56.17;99197.41;5092138;28;19922;-76
2023/11/01 03:57:36;;;;;;;;;;;;;;;17.58;56.10;99207.28;5092303;28;19968;-77
2023/11/01 04:00:02;;;;;;;;;;;;;;;17.60;56.13;99206.00;5092221;28;19999;-77
2023/11/01 04:02:27;;;;;;;;;;;;;;;17.63;55.82;99204.72;5092829;28;19919;-77
2023/11/01 04:04:53;;;;;;;;;;;;;;;17.66;55.98;99202.44;5095007;28;19916;-77
2023/11/01 04:07:19;;;;;;;;;;;;;;;17.69;55.99;99201.16;5093425;28;19919;-76
2023/11/01 04:09:44;;;;;;;;;;;;;;;17.72;55.88;99211.38;5074184;28;19912;-77
2023/11/01 04:12:09;;;;;;;;;;;;;;;17.70;55.93;99222.28;5092049;28;19912;-77
2023/11/01 04:14:35;;;;;;;;;;;;;;;17.72;55.87;99219.38;5092180;28;19919;-77
2023/11/01 04:17:00;;;;;;;;;;;;;;;17.74;56.04;99215.44;5092010;28;20377;-77
2023/11/01 04:19:25;;;;;;;;;;;;;;;17.75;55.98;99221.59;5091872;28;19912;-77
2023/11/01 04:21:51;;;;;;;;;;;;;;;17.75;56.08;99218.91;5091908;28;20312;-77
2023/11/01 04:24:16;;;;;;;;;;;;;;;17.74;56.24;99225.31;5091758;28;20329;-77
2023/11/01 04:26:41;;;;;;;;;;;;;;;17.74;56.04;99222.63;5091859;28;19943;-77
2023/11/01 04:29:06;;;;;;;;;;;;;;;17.77;55.94;99238.19;5091787;28;19916;-76
2023/11/01 04:31:32;;;;;;;;;;;;;;;17.78;56.17;99245.97;5092018;28;20351;-77
2023/11/01 04:33:57;;;;;;;;;;;;;;;17.78;56.01;99245.97;5074293;28;19912;-76
2023/11/01 04:36:26;;;;;;;;;;;;;;;17.75;56.27;99249.09;5074331;28;20392;-77
2023/11/01 04:38:52;;;;;;;;;;;;;;;17.76;56.18;99241.91;5095944;28;19934;-77
2023/11/01 04:41:18;;;;;;;;;;;;;;;17.73;56.53;99237.84;5095888;28;19912;-77
2023/11/01 04:43:43;;;;;;;;;;;;;;;17.74;56.46;99252.81;5095941;28;19912;-77
2023/11/01 04:46:09;;;;;;;;;;;;;;;17.74;56.07;99250.16;5095910;28;19912;-77
2023/11/01 04:48:34;;;;;;;;;;;;;;;17.76;56.37;99258.75;5095979;28;19916;-77
2023/11/01 04:50:59;;;;;;;;;;;;;;;17.75;56.34;99257.09;5095570;28;19912;-77
2023/11/01 04:53:25;;;;;;;;;;;;;;;17.75;56.35;99262.44;5095514;28;19912;-76
2023/11/01 04:55:50;;;;;;;;;;;;;;;17.76;56.27;99265.94;5095357;28;19919;-77
2023/11/01 04:58:16;;;;;;;;;;;;;;;17.77;56.14;99272.91;5095329;28;20028;-77
2023/11/01 05:00:41;;;;;;;;;;;;;;;17.74;56.56;99263.50;5095471;28;19995;-76
2023/11/01 05:03:06;;;;;;;;;;;;;;;17.68;56.53;99268.94;5095352;28;20007;-77
2023/11/01 05:05:32;;;;;;;;;;;;;;;17.65;56.13;99272.03;5095563;28;19923;-77
2023/11/01 05:07:57;;;;;;;;;;;;;;;17.65;56.14;99264.03;5095460;28;19919;-77
2023/11/01 05:10:22;;;;;;;;;;;;;;;17.64;56.22;99265.09;5077201;28;20422;-77
2023/11/01 05:12:48;;;;;;;;;;;;;;;17.66;56.19;99263.00;5095316;28;19912;-76
2023/11/01 05:15:13;;;;;;;;;;;;;;;17.64;55.94;99262.41;5095399;28;19961;-77
2023/11/01 05:17:40;;;;;;;;;;;;;;;17.67;56.05;99268.13;5095182;28;19913;-77
2023/11/01 05:20:05;;;;;;;;;;;;;;;17.72;56.04;99275.44;5095547;28;19912;-76
2023/11/01 05:22:31;;;;;;;;;;;;;;;17.77;56.24;99288.94;5095695;28;19919;-77
2023/11/01 05:24:57;;;;;;;;;;;;;;;17.76;55.78;99288.13;5095233;28;20007;-77
2023/11/01 05:27:22;;;;;;;;;;;;;;;17.76;55.94;99281.97;5094960;28;19938;-77
2023/11/01 05:29:48;;;;;;;;;;;;;;;17.77;55.75;99281.72;5094664;28;20385;-76
2023/11/01 05:32:13;;;;;;;;;;;;;;;17.76;55.89;99282.78;5076931;28;19919;-77
2023/11/01 05:34:39;;;;;;;;;;;;;;;17.77;55.81;99294.25;5094921;28;20003;-77
2023/11/01 05:37:04;;;;;;;;;;;;;;;17.79;56.13;99290.31;5095017;28;20381;-77
2023/11/01 05:39:30;;;;;;;;;;;;;;;17.82;56.04;99304.25;5094882;28;20003;-77
2023/11/01 05:41:55;;;;;;;;;;;;;;;17.84;55.95;99313.69;5094441;28;19999;-76
2023/11/01 05:44:20;;;;;;;;;;;;;;;17.87;56.15;99307.91;5094506;28;19916;-78
2023/11/01 05:46:46;;;;;;;;;;;;;;;17.89;56.01;99305.81;5094764;28;19912;-77
2023/11/01 05:49:11;;;;;;;;;;;;;;;17.90;56.02;99326.13;5075520;28;19953;-77
2023/11/01 05:51:37;;;;;;;;;;;;;;;17.84;56.12;99315.56;5076466;28;19923;-77
2023/11/01 05:54:02;;;;;;;;;;;;;;;17.88;56.08;99319.38;5094927;28;19919;-76
2023/11/01 05:56:27;;;;;;;;;;;;;;;17.87;55.89;99326.59;5077720;28;19947;-77
2023/11/01 05:58:55;;;;;;;;;;;;;;;17.89;56.33;99335.19;5080729;28;19912;-77
2023/11/01 06:01:21;;;;;;;;;;;;;;;17.92;56.14;99332.06;5096188;28;19916;-78
2023/11/01 06:03:50;;;;;;;;;;;;;;;17.94;56.27;99350.53;5093913;28;20317;-76
2023/11/01 06:06:15;;;;;;;;;;;;;;;17.99;55.84;99337.28;5094111;28;20316;-77
2023/11/01 06:08:41;;;;;;;;;;;;;;;18.02;55.90;99344.84;5093977;28;19934;-78
2023/11/01 06:11:07;;;;;;;;;;;;;;;18.05;55.64;99347.03;5094015;28;20465;-77
2023/11/01 06:13:32;;;;;;;;;;;;;;;18.11;55.48;99348.78;5094167;28;19963;-77
2023/11/01 06:16:04;;;;;;;;;;;;;;;18.15;55.49;99349.13;5093869;28;20316;-77
2023/11/01 06:18:30;;;;;;;;;;;;;;;18.17;55.38;99347.06;5094027;28;19916;-77
2023/11/01 06:20:56;;;;;;;;;;;;;;;18.21;55.30;99340.19;5093900;28;19934;-77
2023/11/01 06:23:22;;;;;;;;;;;;;;;18.22;55.19;99353.31;5093725;28;20330;-77
2023/11/01 06:25:47;;;;;;;;;;;;;;;18.24;55.04;99351.22;5093551;28;19919;-77
2023/11/01 06:28:12;;;;;;;;;;;;;;;18.30;55.08;99344.16;5093698;28;19949;-77
2023/11/01 06:30:38;;;;;;;;;;;;;;;18.36;54.75;99346.69;5093526;28;19997;-77
2023/11/01 06:33:04;;;;;;;;;;;;;;;18.40;54.97;99339.84;5093689;28;19912;-77
2023/11/01 06:35:29;;;;;;;;;;;;;;;18.46;54.64;99332.75;5093871;28;19919;-78
2023/11/01 06:37:54;;;;;;;;;;;;;;;18.49;54.56;99334.94;5093470;28;19916;-77
2023/11/01 06:40:19;;;;;;;;;;;;;;;18.54;54.43;99335.06;5093337;28;20396;-78
2023/11/01 06:42:45;;;;;;;;;;;;;;;18.60;54.29;99338.69;5074977;28;20002;-77
2023/11/01 06:45:11;;;;;;;;;;;;;;;18.64;54.32;99339.88;5093043;28;19973;-77
2023/11/01 06:47:36;;;;;;;;;;;;;;;18.66;54.16;99330.56;5093414;28;19916;-77
2023/11/01 06:50:02;;;;;;;;;;;;;;;18.71;54.24;99335.22;5075127;28;19977;-76
2023/11/01 06:52:27;;;;;;;;;;;;;;;18.76;54.27;99326.47;5093570;28;19935;-75
2023/11/01 06:54:52;;;;;;;;;;;;;;;18.80;54.15;99333.78;5093078;28;19922;-75
2023/11/01 06:57:17;;;;;;;;;;;;;;;18.84;54.56;99331.44;5093061;28;19955;-75
2023/11/01 06:59:43;;;;;;;;;;;;;;;18.88;54.26;99336.09;5092988;28;19912;-77
2023/11/01 07:02:09;;;;;;;;;;;;;;;18.93;54.12;99336.19;5087140;28;19962;-77
2023/11/01 07:04:34;;;;;;;;;;;;;;;18.96;54.16;99341.06;5073961;28;19920;-77
2023/11/01 07:07:00;;;;;;;;;;;;;;;19.02;54.16;99341.97;5072655;28;19925;-77
2023/11/01 07:09:25;;;;;;;;;;;;;;;19.07;54.18;99352.78;5075490;28;19916;-77
2023/11/01 07:11:51;;;;;;;;;;;;;;;19.13;53.97;99343.00;5074653;28;19963;-77
2023/11/01 07:14:17;;;;;;;;;;;;;;;19.21;53.94;99339.94;5078560;28;20393;-75
2023/11/01 07:16:43;;;;;;;;;;;;;;;19.34;54.10;99350.38;5064191;28;19925;-76
2023/11/01 07:19:08;;;;;;;;;;;;;;;19.44;54.04;99355.94;5082586;28;20073;-76
2023/11/01 07:21:33;;;;;;;;;;;;;;;19.52;53.49;99352.03;5083255;28;19916;-76
2023/11/01 07:23:59;;;;;;;;;;;;;;;19.61;53.55;99351.44;5088191;28;19916;-75
2023/11/01 07:26:24;;;;;;;;;;;;;;;19.69;53.56;99350.22;5092392;28;19912;-77
2023/11/01 07:28:50;;;;;;;;;;;;;;;19.75;53.08;99357.31;5063054;28;19923;-77
2023/11/01 07:31:15;;;;;;;;;;;;;;;19.82;53.17;99346.44;5076743;28;19916;-76
2023/11/01 07:33:42;;;;;;;;;;;;;;;19.87;53.20;99350.00;5085639;28;20406;-78
2023/11/01 07:36:08;;;;;;;;;;;;;;;19.93;53.13;99357.06;5092234;28;19913;-76
2023/11/01 07:38:33;;;;;;;;;;;;;;;20.01;52.73;99347.81;5092218;28;19969;-78
2023/11/01 07:40:58;;;;;;;;;;;;;;;20.06;52.65;99350.56;5090234;28;19912;-75
2023/11/01 07:43:24;;;;;;;;;;;;;;;20.12;52.63;99351.50;5086741;28;19923;-76
2023/11/01 07:45:49;;;;;;;;;;;;;;;20.19;52.39;99350.25;5070388;28;20019;-77
2023/11/01 07:48:15;;;;;;;;;;;;;;;20.29;52.18;99353.09;5085469;28;19916;-76
2023/11/01 07:50:41;;;;;;;;;;;;;;;20.39;52.02;99356.97;5073330;28;19948;-76
2023/11/01 07:53:07;;;;;;;;;;;;;;;20.50;51.95;99353.41;5074232;28;19976;-76
2023/11/01 07:55:32;;;;;;;;;;;;;;;20.57;51.89;99349.50;5082589;28;20003;-76
2023/11/01 07:57:57;;;;;;;;;;;;;;;20.62;51.47;99348.75;5074514;28;19912;-75
2023/11/01 08:00:23;;;;;;;;;;;;;;;20.68;51.13;99357.69;5084789;28;19966;-75
2023/11/01 08:02:48;;;;;;;;;;;;;;;20.73;51.48;99363.09;5077779;28;20073;-76
2023/11/01 08:05:13;;;;;;;;;;;;;;;20.73;51.22;99363.09;5073033;28;19917;-78
2023/11/01 08:07:38;;;;;;;;;;;;;;;20.72;51.08;99362.28;5082861;28;19927;-74
2023/11/01 08:10:04;;;;;;;;;;;;;;;20.74;50.82;99359.38;5072577;28;19926;-77
2023/11/01 08:12:29;;;;;;;;;;;;;;;20.74;50.31;99362.84;5066133;28;20478;-77
2023/11/01 08:14:54;;;;;;;;;;;;;;;20.76;49.91;99362.59;5078625;28;19923;-76
2023/11/01 08:17:20;;;;;;;;;;;;;;;20.76;49.04;99363.41;5088634;28;19924;-77
2023/11/01 08:19:45;;;;;;;;;;;;;;;20.74;49.59;99368.22;5083384;28;19986;-77
2023/11/01 08:22:12;;;;;;;;;;;;;;;20.78;49.50;99369.34;5081690;28;19916;-76
2023/11/01 08:24:40;;;;;;;;;;;;;;;20.82;49.18;99369.69;5064316;28;19928;-77
2023/11/01 08:27:06;;;;;;;;;;;;;;;20.79;48.85;99373.66;5071485;28;20309;-77
2023/11/01 08:29:31;;;;;;;;;;;;;;;20.80;48.92;99372.59;5076278;28;19916;-76
2023/11/01 08:31:56;;;;;;;;;;;;;;;20.84;47.79;99376.44;5077328;28;19981;-76
2023/11/01 08:34:22;;;;;;;;;;;;;;;20.90;49.17;99363.91;5079532;28;20385;-75
2023/11/01 08:36:47;;;;;;;;;;;;;;;20.97;49.05;99372.56;5064991;28;19973;-75
2023/11/01 08:39:12;;;;;;;;;;;;;;;21.04;48.16;99375.06;5061463;28;19913;-76
2023/11/01 08:41:37;;;;;;;;;;;;;;;21.06;48.27;99376.44;5088365;28;20403;-75
2023/11/01 08:44:03;;;;;;;;;;;;;;;21.13;48.72;99374.38;5067239;28;20011;-77
2023/11/01 08:46:28;;;;;;;;;;;;;;;21.20;48.68;99379.56;5083980;28;19985;-75
2023/11/01 08:48:53;;;;;;;;;;;;;;;21.29;47.53;99379.94;5078955;28;19923;-75
2023/11/01 08:51:19;;;;;;;;;;;;;;;21.31;46.92;99377.81;5075159;28;20372;-77
2023/11/01 08:53:44;;;;;;;;;;;;;;;21.34;47.68;99378.13;5073325;28;19916;-77
2023/11/01 08:56:09;;;;;;;;;;;;;;;21.36;47.12;99383.25;5071215;28;19912;-77
2023/11/01 08:58:34;;;;;;;;;;;;;;;21.35;47.75;99387.00;5069749;28;19912;-76
2023/11/01 09:01:00;;;;;;;;;;;;;;;21.35;46.75;99387.81;5071270;28;19956;-76
2023/11/01 09:03:25;;;;;;;;;;;;;;;21.31;46.92;99384.00;5060806;28;20393;-75
2023/11/01 09:05:54;;;;;;;;;;;;;;;21.43;47.82;99383.84;5045418;28;19975;-77
2023/11/01 09:08:20;;;;;;;;;;;;;;;21.54;45.83;99381.03;5052830;28;19943;-75
2023/11/01 09:10:45;;;;;;;;;;;;;;;21.69;46.02;99382.25;5050869;28;19996;-77
2023/11/01 09:13:11;;;;;;;;;;;;;;;21.83;46.11;99381.59;5050963;28;20302;-76
2023/11/01 09:15:36;;;;;;;;;;;;;;;21.94;45.39;99382.50;5033180;28;19920;-75
2023/11/01 09:18:02;;;;;;;;;;;;;;;22.01;45.40;99385.78;5054416;28;19917;-75
2023/11/01 09:20:27;;;;;;;;;;;;;;;22.07;44.61;99378.59;5064351;28;19998;-74
2023/11/01 09:22:52;;;;;;;;;;;;;;;22.10;45.73;99381.56;5055257;28;19952;-77
2023/11/01 09:25:17;;;;;;;;;;;;;;;22.09;45.04;99368.38;5058301;28;19928;-76
2023/11/01 09:27:43;;;;;;;;;;;;;;;22.05;44.04;99373.47;5074782;28;20355;-75
2023/11/01 09:30:08;;;;;;;;;;;;;;;22.03;45.41;99366.72;5074967;28;19999;-77
2023/11/01 09:32:35;;;;;;;;;;;;;;;21.98;45.30;99375.53;5056158;28;19916;-75
2023/11/01 09:35:01;;;;;;;;;;;;;;;21.95;45.55;99370.66;5057695;28;19913;-75
2023/11/01 09:37:26;;;;;;;;;;;;;;;21.94;46.05;99362.88;5055762;28;20424;-76
2023/11/01 09:39:51;;;;;;;;;;;;;;;21.91;46.38;99356.13;5074423;28;19913;-76
2023/11/01 09:42:20;;;;;;;;;;;;;;;21.87;45.66;99358.50;5056304;28;19919;-76
2023/11/01 09:44:46;;;;;;;;;;;;;;;21.85;46.20;99346.41;5074085;28;19931;-76
2023/11/01 09:47:13;;;;;;;;;;;;;;;21.80;45.14;99346.34;5056510;28;19999;-76
2023/11/01 09:49:39;;;;;;;;;;;;;;;21.84;45.35;99344.78;5056142;28;19912;-75
2023/11/01 09:52:05;;;;;;;;;;;;;;;21.88;45.51;99345.88;5074079;28;20004;-75
2023/11/01 09:54:30;;;;;;;;;;;;;;;21.91;45.34;99331.94;5056545;28;20409;-77
2023/11/01 09:56:56;;;;;;;;;;;;;;;21.97;45.74;99336.28;5054191;28;20405;-76
2023/11/01 09:59:22;;;;;;;;;;;;;;;21.98;45.11;99327.16;5054523;28;19920;-75
2023/11/01 10:01:47;;;;;;;;;;;;;;;22.05;44.51;99333.16;5054176;28;19917;-76
2023/11/01 10:04:13;;;;;;;;;;;;;;;22.19;44.14;99325.44;5070745;28;20320;-74
2023/11/01 10:06:39;;;;;;;;;;;;;;;22.31;45.17;99331.47;5086796;28;19989;-75
2023/11/01 10:09:05;;;;;;;;;;;;;;;22.46;44.32;99325.34;5075147;28;19965;-77
2023/11/01 10:11:31;;;;;;;;;;;;;;;22.58;44.34;99325.16;5083592;28;19916;-76
2023/11/01 10:13:57;;;;;;;;;;;;;;;22.62;44.19;99320.88;5074581;28;20007;-77
2023/11/01 10:16:22;;;;;;;;;;;;;;;22.62;44.13;99316.28;5089604;28;20036;-75
2023/11/01 10:18:48;;;;;;;;;;;;;;;22.69;44.63;99310.66;5073792;28;19912;-76
2023/11/01 10:21:13;;;;;;;;;;;;;;;22.78;45.14;99304.50;5087914;28;19916;-76
2023/11/01 10:23:39;;;;;;;;;;;;;;;22.82;43.36;99299.44;5064384;28;19939;-76
2023/11/01 10:26:04;;;;;;;;;;;;;;;22.88;43.91;99298.38;5085134;28;20391;-76
2023/11/01 10:28:48;;;;;;;;;;;;;;;22.95;43.49;99298.13;5095436;28;19916;-76
2023/11/01 10:31:14;;;;;;;;;;;;;;;23.00;43.46;99298.97;5097330;28;19934;-76
2023/11/01 10:33:40;;;;;;;;;;;;;;;23.10;43.22;99292.81;5098944;28;20385;-77
2023/11/01 10:36:06;;;;;;;;;;;;;;;23.13;42.87;99289.59;5097192;28;19921;-77
2023/11/01 10:38:31;;;;;;;;;;;;;;;23.13;41.61;99286.91;5094681;28;19969;-77
2023/11/01 10:40:58;;;;;;;;;;;;;;;23.16;42.63;99286.38;5093593;28;20337;-76
2023/11/01 10:43:26;;;;;;;;;;;;;;;23.23;42.56;99286.13;5075461;28;19919;-77
2023/11/01 10:45:53;;;;;;;;;;;;;;;23.29;42.03;99285.84;5093455;28;19924;-76
2023/11/01 10:48:19;;;;;;;;;;;;;;;23.33;39.86;99286.13;5093685;28;19912;-74
2023/11/01 10:50:44;;;;;;;;;;;;;;;23.35;40.29;99273.19;5093594;28;19913;-77
2023/11/01 10:53:11;;;;;;;;;;;;;;;23.39;40.23;99275.09;5093500;28;19919;-76
2023/11/01 10:55:37;;;;;;;;;;;;;;;23.44;40.12;99277.78;5093335;28;20319;-76
2023/11/01 10:58:05;;;;;;;;;;;;;;;23.45;38.90;99276.72;5075153;28;20011;-77
2023/11/01 11:01:00;;;;;;;;;;;;;;;23.49;38.69;99276.16;5079879;28;19920;-77
2023/11/01 11:03:33;;;;;;;;;;;;;;;23.46;41.31;99278.31;5053917;28;19924;-76
2023/11/01 11:05:59;;;;;;;;;;;;;;;23.47;42.02;99273.75;5072542;28;20416;-77
2023/11/01 11:08:24;;;;;;;;;;;;;;;23.50;41.11;99275.09;5054957;28;19912;-76
2023/11/01 11:10:49;;;;;;;;;;;;;;;23.47;42.42;99268.34;5089299;28;19913;-77
2023/11/01 11:13:18;;;;;;;;;;;;;;;23.41;39.46;99264.03;5084242;28;19955;-77
2023/11/01 11:18:21;;;;;;;;;;;;;;;23.41;40.41;99272.13;5080509;28;19973;-75
2023/11/01 11:20:47;;;;;;;;;;;;;;;23.38;39.96;99276.16;5086726;28;19916;-76
2023/11/01 11:23:14;;;;;;;;;;;;;;;23.36;40.54;99274.81;5077525;28;19912;-76
2023/11/01 11:25:49;;;;;;;;;;;;;;;23.33;40.21;99264.56;5072930;28;19931;-75
2023/11/01 11:28:17;;;;;;;;;;;;;;;23.33;39.48;99261.88;5075439;28;19912;-76
2023/11/01 11:31:07;;;;;;;;;;;;;;;23.33;40.65;99262.69;5082247;28;20468;-75
2023/11/01 11:33:39;;;;;;;;;;;;;;;23.29;36.00;99261.59;5085785;28;19965;-77
2023/11/01 11:36:07;;;;;;;;;;;;;;;23.29;38.96;99252.72;5087520;28;20007;-77
2023/11/01 11:38:34;;;;;;;;;;;;;;;23.29;40.35;99258.09;5080744;28;19936;-75
2023/11/01 11:41:12;;;;;;;;;;;;;;;23.27;40.61;99250.28;5080961;28;19929;-77
2023/11/01 11:43:57;;;;;;;;;;;;;;;23.23;38.38;99241.13;5058758;28;20003;-76
2023/11/01 11:46:26;;;;;;;;;;;;;;;23.24;39.78;99250.03;5083068;28;19928;-78
2023/11/01 11:48:52;;;;;;;;;;;;;;;23.23;39.11;99251.91;5059316;28;20409;-77
2023/11/01 11:51:17;;;;;;;;;;;;;;;23.23;37.94;99251.91;5085531;28;19958;-76
2023/11/01 11:53:43;;;;;;;;;;;;;;;23.26;39.84;99251.38;5080159;28;19999;-76
2023/11/01 11:56:08;;;;;;;;;;;;;;;23.24;39.16;99248.13;5081122;28;20388;-77
2023/11/01 11:58:37;;;;;;;;;;;;;;;23.26;39.68;99251.38;5081472;28;19939;-77
2023/11/01 12:01:03;;;;;;;;;;;;;;;23.27;39.82;99255.69;5089230;28;19969;-77
2023/11/01 12:03:28;;;;;;;;;;;;;;;23.29;40.13;99253.53;5072523;28;20409;-77
2023/11/01 12:05:56;;;;;;;;;;;;;;;23.29;39.90;99252.72;5091356;28;20325;-77
2023/11/01 12:08:41;;;;;;;;;;;;;;;23.26;38.52;99251.38;5090352;28;20401;-76
2023/11/01 12:11:07;;;;;;;;;;;;;;;23.24;38.89;99247.31;5091217;28;19950;-75
2023/11/01 12:13:39;;;;;;;;;;;;;;;23.20;36.87;99240.84;5089165;28;19943;-75
2023/11/01 12:16:04;;;;;;;;;;;;;;;23.22;38.67;99236.00;5091018;28;19922;-77
2023/11/01 12:18:29;;;;;;;;;;;;;;;23.22;38.43;99234.13;5071733;28;19912;-76
2023/11/01 12:20:55;;;;;;;;;;;;;;;23.22;36.52;99238.72;5091832;28;19955;-75
2023/11/01 12:23:20;;;;;;;;;;;;;;;23.24;40.63;99237.34;5078907;28;20355;-77
2023/11/01 12:25:45;;;;;;;;;;;;;;;23.24;39.49;99240.06;5075986;28;19963;-76
2023/11/01 12:28:19;;;;;;;;;;;;;;;23.24;38.28;99236.56;5063998;28;20381;-77
2023/11/01 12:30:44;;;;;;;;;;;;;;;23.27;40.40;99239.53;5076200;28;19916;-76
2023/11/01 12:33:20;;;;;;;;;;;;;;;23.26;40.09;99240.59;5069874;28;19916;-78
2023/11/01 12:35:45;;;;;;;;;;;;;;;23.25;38.25;99238.16;5068947;28;19974;-75
2023/11/01 12:38:17;;;;;;;;;;;;;;;23.26;38.19;99235.22;5070282;28;19940;-76
2023/11/01 12:40:48;;;;;;;;;;;;;;;23.24;39.77;99233.84;5075495;28;19912;-78
2023/11/01 12:43:14;;;;;;;;;;;;;;;23.23;38.87;99235.75;5069735;28;20066;-75
2023/11/01 12:45:39;;;;;;;;;;;;;;;23.21;37.46;99235.19;5074381;28;20347;-77